createdAt,value
2019-01-08T00:00:58.615Z,99.99
2019-01-08T00:01:58.582Z,99.99
2019-01-08T00:02:58.548Z,99.99
2019-01-08T00:03:58.514Z,99.99
2019-01-08T00:04:58.481Z,99.99
2019-01-08T00:05:58.449Z,99.99
2019-01-08T00:06:58.418Z,99.99
2019-01-08T00:07:58.388Z,99.99
2019-01-08T00:08:58.351Z,99.99
2019-01-08T00:09:58.321Z,99.99
2019-01-08T00:10:58.286Z,99.99
2019-01-08T00:11:58.253Z,99.99
2019-01-08T00:12:58.220Z,99.99
2019-01-08T00:13:58.187Z,99.99
2019-01-08T00:14:58.154Z,99.99
2019-01-08T00:15:58.122Z,99.99
2019-01-08T00:16:58.091Z,99.99
2019-01-08T00:17:58.059Z,99.99
2019-01-08T00:18:58.391Z,99.99
2019-01-08T00:19:57.991Z,99.99
2019-01-08T00:20:57.958Z,99.99
2019-01-08T00:21:57.926Z,99.99
2019-01-08T00:22:57.894Z,99.99
2019-01-08T00:23:57.861Z,99.99
2019-01-08T00:24:57.827Z,99.99
2019-01-08T00:25:57.795Z,99.99
2019-01-08T00:26:57.763Z,99.99
2019-01-08T00:27:57.729Z,99.99
2019-01-08T00:28:57.697Z,99.99
2019-01-08T00:29:57.665Z,99.99
2019-01-08T00:30:57.631Z,99.99
2019-01-08T00:31:57.600Z,99.99
2019-01-08T00:32:57.567Z,99.99
2019-01-08T00:33:57.535Z,99.99
2019-01-08T00:34:57.503Z,99.99
2019-01-08T00:35:57.470Z,99.99
2019-01-08T00:36:57.436Z,99.99
2019-01-08T00:37:57.403Z,99.99
2019-01-08T00:38:57.371Z,99.99
2019-01-08T00:39:57.340Z,99.99
2019-01-08T00:40:57.304Z,99.99
2019-01-08T00:41:57.272Z,99.99
2019-01-08T00:42:57.239Z,99.99
2019-01-08T00:43:57.207Z,99.99
2019-01-08T00:44:57.173Z,99.99
2019-01-08T00:45:57.141Z,99.99
2019-01-08T00:46:57.110Z,99.99
2019-01-08T00:47:57.076Z,99.99
2019-01-08T00:48:57.042Z,99.99
2019-01-08T00:49:57.011Z,99.99
2019-01-08T00:50:56.978Z,99.99
2019-01-08T00:51:56.945Z,99.99
2019-01-08T00:52:56.912Z,99.99
2019-01-08T00:53:56.879Z,99.99
2019-01-08T00:54:56.846Z,99.99
2019-01-08T00:55:56.812Z,99.99
2019-01-08T00:56:56.780Z,99.99
2019-01-08T00:57:56.748Z,99.99
2019-01-08T00:58:56.715Z,99.99
2019-01-08T00:59:56.682Z,99.99
2019-01-08T01:00:56.650Z,99.99
2019-01-08T01:01:56.618Z,99.99
2019-01-08T01:02:56.587Z,99.99
2019-01-08T01:03:56.551Z,99.99
2019-01-08T01:04:56.518Z,99.99
2019-01-08T01:05:56.485Z,99.99
2019-01-08T01:06:56.457Z,99.99
2019-01-08T01:07:56.421Z,99.99
2019-01-08T01:08:56.388Z,99.99
2019-01-08T01:09:56.355Z,99.99
2019-01-08T01:10:56.322Z,99.99
2019-01-08T01:11:56.289Z,99.99
2019-01-08T01:12:56.260Z,99.99
2019-01-08T01:13:56.224Z,99.99
2019-01-08T01:14:56.191Z,99.99
2019-01-08T01:15:56.408Z,99.99
2019-01-08T01:16:56.127Z,99.99
2019-01-08T01:17:56.093Z,99.99
2019-01-08T01:18:56.060Z,99.99
2019-01-08T01:19:56.028Z,99.99
2019-01-08T01:20:55.995Z,99.99
2019-01-08T01:21:55.963Z,99.99
2019-01-08T01:22:55.930Z,99.99
2019-01-08T01:23:55.896Z,99.99
2019-01-08T01:24:55.864Z,99.99
2019-01-08T01:25:55.834Z,99.99
2019-01-08T01:26:55.798Z,99.99
2019-01-08T01:27:55.766Z,99.99
2019-01-08T01:29:00.122Z,99.99
2019-01-08T01:29:55.700Z,99.99
2019-01-08T01:30:55.668Z,99.99
2019-01-08T01:31:55.634Z,99.99
2019-01-08T01:32:55.601Z,99.99
2019-01-08T01:33:55.570Z,99.99
2019-01-08T01:34:55.536Z,99.99
2019-01-08T01:35:55.503Z,99.99
2019-01-08T01:36:55.474Z,99.99
2019-01-08T01:37:55.438Z,99.99
2019-01-08T01:38:55.405Z,99.99
2019-01-08T01:39:55.377Z,99.99
2019-01-08T01:40:55.339Z,99.99
2019-01-08T01:41:55.307Z,99.99
2019-01-08T01:42:55.273Z,99.99
2019-01-08T01:43:55.241Z,99.99
2019-01-08T01:44:55.207Z,99.99
2019-01-08T01:45:55.176Z,99.99
2019-01-08T01:46:55.143Z,99.99
2019-01-08T01:47:55.109Z,99.99
2019-01-08T01:48:55.077Z,99.99
2019-01-08T01:49:55.048Z,99.99
2019-01-08T01:50:55.011Z,99.99
2019-01-08T01:51:54.977Z,99.99
2019-01-08T01:52:54.945Z,99.99
2019-01-08T01:53:54.913Z,99.99
2019-01-08T01:54:54.880Z,99.99
2019-01-08T01:55:54.845Z,99.99
2019-01-08T01:56:54.813Z,99.99
2019-01-08T01:57:54.782Z,99.99
2019-01-08T01:58:54.750Z,99.99
2019-01-08T01:59:54.713Z,99.99
2019-01-08T02:00:54.681Z,99.99
2019-01-08T02:01:54.648Z,99.99
2019-01-08T02:02:54.621Z,99.99
2019-01-08T02:03:54.584Z,99.99
2019-01-08T02:04:54.548Z,99.99
2019-01-08T02:05:54.516Z,99.99
2019-01-08T02:06:54.484Z,99.99
2019-01-08T02:07:54.449Z,99.99
2019-01-08T02:08:54.418Z,99.99
2019-01-08T02:09:54.385Z,99.99
2019-01-08T02:10:54.350Z,99.99
2019-01-08T02:11:54.317Z,99.99
2019-01-08T02:12:54.283Z,99.99
2019-01-08T02:13:54.251Z,99.99
2019-01-08T02:14:54.220Z,99.99
2019-01-08T02:15:54.184Z,99.99
2019-01-08T02:16:54.153Z,99.99
2019-01-08T02:17:54.120Z,99.99
2019-01-08T02:18:54.086Z,99.99
2019-01-08T02:19:54.052Z,99.99
2019-01-08T02:20:54.019Z,99.99
2019-01-08T02:21:53.986Z,99.99
2019-01-08T02:22:53.954Z,99.99
2019-01-08T02:23:53.919Z,99.99
2019-01-08T02:24:53.886Z,99.99
2019-01-08T02:25:53.855Z,99.99
2019-01-08T02:26:53.820Z,99.99
2019-01-08T02:27:53.786Z,99.99
2019-01-08T02:28:53.754Z,99.99
2019-01-08T02:29:53.721Z,99.99
2019-01-08T02:30:53.691Z,99.99
2019-01-08T02:31:53.652Z,99.99
2019-01-08T02:32:53.621Z,99.99
2019-01-08T02:33:53.590Z,99.99
2019-01-08T02:34:53.560Z,99.99
2019-01-08T02:35:53.521Z,99.99
2019-01-08T02:36:53.490Z,99.99
2019-01-08T02:37:53.455Z,99.99
2019-01-08T02:38:53.424Z,99.99
2019-01-08T02:39:53.389Z,99.99
2019-01-08T02:40:53.356Z,99.99
2019-01-08T02:41:53.472Z,99.99
2019-01-08T02:42:53.294Z,99.99
2019-01-08T02:43:53.411Z,99.99
2019-01-08T02:44:53.231Z,99.99
2019-01-08T02:45:53.189Z,99.99
2019-01-08T02:46:53.158Z,99.99
2019-01-08T02:47:53.124Z,99.99
2019-01-08T02:48:53.090Z,99.99
2019-01-08T02:49:53.058Z,99.99
2019-01-08T02:50:53.035Z,99.99
2019-01-08T02:51:52.991Z,99.99
2019-01-08T02:52:52.958Z,99.99
2019-01-08T02:53:52.925Z,99.99
2019-01-08T02:54:52.898Z,99.99
2019-01-08T02:55:52.862Z,99.99
2019-01-08T02:56:52.825Z,99.99
2019-01-08T02:57:52.791Z,99.99
2019-01-08T02:58:52.760Z,99.99
2019-01-08T02:59:52.730Z,99.99
2019-01-08T03:00:52.694Z,99.99
2019-01-08T03:01:52.661Z,99.99
2019-01-08T03:02:52.627Z,99.99
2019-01-08T03:03:52.593Z,99.99
2019-01-08T03:04:52.572Z,99.99
2019-01-08T03:05:52.527Z,99.99
2019-01-08T03:06:52.561Z,99.99
2019-01-08T03:07:52.461Z,99.99
2019-01-08T03:08:52.429Z,99.99
2019-01-08T03:09:52.395Z,99.99
2019-01-08T03:10:52.363Z,99.99
2019-01-08T03:11:52.330Z,99.99
2019-01-08T03:12:52.296Z,99.99
2019-01-08T03:13:52.263Z,99.99
2019-01-08T03:14:52.230Z,99.99
2019-01-08T03:15:52.196Z,99.99
2019-01-08T03:16:52.164Z,99.99
2019-01-08T03:17:52.130Z,99.99
2019-01-08T03:18:52.097Z,99.99
2019-01-08T03:19:52.065Z,99.99
2019-01-08T03:20:52.031Z,99.99
2019-01-08T03:21:51.998Z,99.99
2019-01-08T03:22:51.965Z,99.99
2019-01-08T03:23:51.931Z,99.99
2019-01-08T03:24:51.898Z,99.99
2019-01-08T03:25:51.865Z,99.99
2019-01-08T03:26:51.832Z,99.99
2019-01-08T03:27:51.798Z,99.99
2019-01-08T03:28:51.765Z,99.99
2019-01-08T03:29:51.733Z,99.99
2019-01-08T03:30:51.713Z,99.99
2019-01-08T03:31:51.700Z,99.99
2019-01-08T03:32:51.635Z,99.99
2019-01-08T03:33:51.600Z,99.99
2019-01-08T03:34:51.567Z,99.99
2019-01-08T03:35:51.535Z,99.99
2019-01-08T03:36:51.500Z,99.99
2019-01-08T03:37:51.470Z,99.99
2019-01-08T03:38:51.434Z,99.99
2019-01-08T03:39:51.400Z,99.99
2019-01-08T03:40:51.367Z,99.99
2019-01-08T03:41:51.333Z,99.99
2019-01-08T03:42:51.303Z,99.99
2019-01-08T03:43:51.267Z,99.99
2019-01-08T03:44:51.234Z,99.99
2019-01-08T03:45:51.201Z,99.99
2019-01-08T03:46:51.169Z,99.99
2019-01-08T03:47:51.134Z,99.99
2019-01-08T03:48:51.102Z,99.99
2019-01-08T03:49:51.069Z,99.99
2019-01-08T03:50:51.035Z,99.99
2019-01-08T03:51:51.002Z,99.99
2019-01-08T03:52:50.969Z,99.99
2019-01-08T03:53:50.941Z,99.99
2019-01-08T03:54:50.901Z,99.99
2019-01-08T03:55:50.868Z,99.99
2019-01-08T03:56:50.836Z,99.99
2019-01-08T03:57:50.803Z,99.99
2019-01-08T03:58:50.772Z,99.99
2019-01-08T03:59:50.735Z,99.99
2019-01-08T04:00:50.702Z,99.99
2019-01-08T04:01:50.669Z,99.99
2019-01-08T04:02:50.637Z,99.99
2019-01-08T04:03:50.602Z,99.99
2019-01-08T04:04:50.569Z,99.99
2019-01-08T04:05:50.536Z,99.99
2019-01-08T04:06:50.503Z,99.99
2019-01-08T04:07:50.468Z,99.99
2019-01-08T04:08:50.438Z,99.99
2019-01-08T04:09:50.406Z,99.99
2019-01-08T04:10:50.370Z,99.99
2019-01-08T04:11:50.407Z,99.99
2019-01-08T04:12:50.306Z,99.99
2019-01-08T04:13:50.273Z,99.99
2019-01-08T04:14:50.238Z,99.99
2019-01-08T04:15:50.203Z,99.99
2019-01-08T04:16:50.174Z,99.99
2019-01-08T04:17:50.137Z,99.99
2019-01-08T04:18:50.103Z,99.99
2019-01-08T04:19:50.070Z,99.99
2019-01-08T04:20:50.076Z,99.99
2019-01-08T04:21:50.002Z,99.99
2019-01-08T04:22:49.972Z,99.99
2019-01-08T04:23:49.936Z,99.99
2019-01-08T04:24:49.980Z,99.99
2019-01-08T04:25:49.870Z,99.99
2019-01-08T04:26:49.839Z,99.99
2019-01-08T04:27:49.805Z,99.99
2019-01-08T04:28:49.771Z,99.99
2019-01-08T04:29:50.687Z,99.99
2019-01-08T04:30:49.703Z,99.99
2019-01-08T04:31:49.669Z,99.87
2019-01-08T04:32:49.638Z,99.99
2019-01-08T04:33:49.603Z,99.99
2019-01-08T04:34:49.572Z,99.99
2019-01-08T04:35:49.536Z,99.99
2019-01-08T04:36:49.504Z,99.99
2019-01-08T04:37:49.470Z,99.99
2019-01-08T04:38:49.438Z,99.99
2019-01-08T04:39:49.403Z,99.99
2019-01-08T04:40:49.370Z,99.99
2019-01-08T04:41:49.338Z,99.99
2019-01-08T04:42:49.304Z,99.99
2019-01-08T04:43:49.272Z,99.99
2019-01-08T04:44:49.239Z,99.99
2019-01-08T04:45:49.205Z,99.99
2019-01-08T04:46:49.173Z,99.99
2019-01-08T04:47:49.136Z,99.99
2019-01-08T04:48:49.105Z,99.99
2019-01-08T04:49:49.071Z,99.99
2019-01-08T04:50:49.037Z,99.99
2019-01-08T04:51:49.004Z,99.99
2019-01-08T04:52:48.971Z,99.99
2019-01-08T04:53:48.937Z,99.99
2019-01-08T04:54:48.904Z,99.99
2019-01-08T04:55:48.874Z,99.99
2019-01-08T04:56:48.837Z,99.99
2019-01-08T04:57:48.805Z,99.99
2019-01-08T04:58:48.770Z,99.99
2019-01-08T04:59:48.737Z,99.99
2019-01-08T05:00:48.703Z,99.99
2019-01-08T05:01:48.670Z,99.99
2019-01-08T05:02:48.637Z,99.99
2019-01-08T05:03:48.603Z,99.99
2019-01-08T05:04:48.568Z,99.99
2019-01-08T05:05:48.537Z,99.99
2019-01-08T05:06:48.504Z,99.77
2019-01-08T05:07:48.470Z,99.40
2019-01-08T05:08:48.436Z,99.97
2019-01-08T05:09:48.403Z,99.97
2019-01-08T05:10:48.370Z,99.99
2019-01-08T05:11:48.334Z,99.99
2019-01-08T05:12:48.315Z,99.30
2019-01-08T05:13:48.269Z,99.21
2019-01-08T05:14:48.240Z,99.58
2019-01-08T05:15:48.204Z,99.30
2019-01-08T05:16:48.169Z,99.40
2019-01-08T05:17:48.135Z,99.40
2019-01-08T05:18:48.103Z,99.11
2019-01-08T05:19:48.068Z,99.21
2019-01-08T05:20:48.037Z,99.99
2019-01-08T05:21:48.001Z,99.21
2019-01-08T05:22:47.968Z,99.40
2019-01-08T05:23:47.934Z,99.77
2019-01-08T05:24:47.902Z,99.40
2019-01-08T05:25:47.869Z,99.30
2019-01-08T05:26:47.834Z,99.40
2019-01-08T05:27:47.801Z,99.11
2019-01-08T05:28:47.770Z,99.21
2019-01-08T05:29:47.733Z,99.40
2019-01-08T05:30:47.701Z,99.02
2019-01-08T05:31:47.667Z,99.99
2019-01-08T05:32:47.638Z,99.30
2019-01-08T05:33:47.599Z,99.40
2019-01-08T05:34:47.567Z,99.99
2019-01-08T05:35:47.532Z,99.97
2019-01-08T05:36:47.501Z,99.99
2019-01-08T05:37:47.468Z,99.99
2019-01-08T05:38:47.436Z,99.97
2019-01-08T05:39:47.399Z,99.77
2019-01-08T05:40:47.366Z,99.21
2019-01-08T05:41:47.341Z,99.58
2019-01-08T05:42:47.298Z,98.73
2019-01-08T05:43:47.264Z,98.92
2019-01-08T05:44:47.232Z,99.40
2019-01-08T05:45:47.199Z,99.21
2019-01-08T05:46:47.165Z,99.58
2019-01-08T05:47:47.141Z,99.21
2019-01-08T05:48:47.097Z,99.21
2019-01-08T05:49:47.130Z,99.11
2019-01-08T05:50:47.030Z,98.92
2019-01-08T05:51:46.997Z,99.21
2019-01-08T05:52:46.963Z,99.21
2019-01-08T05:53:46.930Z,99.02
2019-01-08T05:54:46.896Z,98.59
2019-01-08T05:55:46.862Z,98.73
2019-01-08T05:56:46.829Z,98.92
2019-01-08T05:57:46.798Z,99.02
2019-01-08T05:58:46.762Z,99.35
2019-01-08T05:59:46.729Z,98.97
2019-01-08T06:00:46.694Z,99.21
2019-01-08T06:01:46.662Z,99.40
2019-01-08T06:02:46.628Z,99.21
2019-01-08T06:03:46.594Z,98.83
2019-01-08T06:04:46.560Z,98.87
2019-01-08T06:05:46.527Z,99.40
2019-01-08T06:06:46.494Z,98.83
2019-01-08T06:07:46.459Z,99.35
2019-01-08T06:08:46.426Z,99.26
2019-01-08T06:09:46.392Z,99.16
2019-01-08T06:10:46.363Z,99.06
2019-01-08T06:11:46.325Z,99.21
2019-01-08T06:12:46.291Z,99.11
2019-01-08T06:13:46.258Z,99.35
2019-01-08T06:14:46.226Z,99.58
2019-01-08T06:15:46.195Z,99.40
2019-01-08T06:16:46.157Z,99.21
2019-01-08T06:17:46.127Z,99.49
2019-01-08T06:18:46.091Z,99.35
2019-01-08T06:19:46.056Z,99.35
2019-01-08T06:20:46.022Z,99.54
2019-01-08T06:21:45.990Z,98.87
2019-01-08T06:22:45.956Z,98.87
2019-01-08T06:23:45.922Z,99.44
2019-01-08T06:24:45.889Z,99.21
2019-01-08T06:25:45.859Z,99.06
2019-01-08T06:26:45.821Z,99.06
2019-01-08T06:27:45.787Z,99.35
2019-01-08T06:28:45.754Z,99.44
2019-01-08T06:29:45.722Z,99.35
2019-01-08T06:30:45.687Z,99.58
2019-01-08T06:31:45.652Z,99.16
2019-01-08T06:32:45.620Z,99.49
2019-01-08T06:33:45.587Z,99.58
2019-01-08T06:34:45.556Z,99.21
2019-01-08T06:35:45.517Z,99.49
2019-01-08T06:36:45.489Z,99.21
2019-01-08T06:37:45.451Z,99.35
2019-01-08T06:38:45.418Z,99.99
2019-01-08T06:39:45.384Z,99.21
2019-01-08T06:40:45.350Z,98.97
2019-01-08T06:41:45.318Z,99.06
2019-01-08T06:42:45.284Z,98.97
2019-01-08T06:43:45.251Z,99.21
2019-01-08T06:44:45.215Z,99.44
2019-01-08T06:45:45.183Z,99.49
2019-01-08T06:46:45.151Z,99.40
2019-01-08T06:47:45.115Z,99.16
2019-01-08T06:48:45.082Z,99.54
2019-01-08T06:49:45.049Z,99.02
2019-01-08T06:50:45.021Z,99.06
2019-01-08T06:51:44.981Z,98.87
2019-01-08T06:52:44.946Z,99.35
2019-01-08T06:53:44.913Z,99.02
2019-01-08T06:54:44.879Z,99.06
2019-01-08T06:55:44.845Z,99.44
2019-01-08T06:56:44.812Z,99.58
2019-01-08T06:57:44.779Z,99.63
2019-01-08T06:58:44.746Z,99.35
2019-01-08T06:59:44.713Z,99.06
2019-01-08T07:00:44.678Z,99.16
2019-01-08T07:01:44.644Z,99.73
2019-01-08T07:02:44.612Z,99.02
2019-01-08T07:03:44.576Z,99.11
2019-01-08T07:04:44.543Z,99.06
2019-01-08T07:05:44.510Z,99.26
2019-01-08T07:06:44.477Z,99.02
2019-01-08T07:07:44.441Z,99.21
2019-01-08T07:08:44.409Z,98.35
2019-01-08T07:09:44.376Z,98.40
2019-01-08T07:10:44.343Z,99.44
2019-01-08T07:11:44.307Z,98.78
2019-01-08T07:12:44.275Z,99.02
2019-01-08T07:13:44.241Z,99.21
2019-01-08T07:14:44.206Z,98.40
2019-01-08T07:15:44.174Z,99.44
2019-01-08T07:16:44.139Z,99.06
2019-01-08T07:17:44.108Z,99.06
2019-01-08T07:18:44.072Z,99.16
2019-01-08T07:19:44.042Z,99.16
2019-01-08T07:20:44.004Z,98.49
2019-01-08T07:21:43.972Z,99.16
2019-01-08T07:22:43.937Z,99.11
2019-01-08T07:23:43.905Z,99.16
2019-01-08T07:24:43.871Z,99.30
2019-01-08T07:25:43.836Z,99.35
2019-01-08T07:26:43.803Z,99.21
2019-01-08T07:27:43.768Z,98.92
2019-01-08T07:28:43.735Z,99.16
2019-01-08T07:29:43.704Z,99.16
2019-01-08T07:30:43.669Z,99.06
2019-01-08T07:31:43.634Z,98.02
2019-01-08T07:32:43.600Z,99.44
2019-01-08T07:33:43.569Z,99.16
2019-01-08T07:34:43.535Z,98.11
2019-01-08T07:35:43.499Z,98.59
2019-01-08T07:36:43.466Z,98.78
2019-01-08T07:37:43.431Z,98.64
2019-01-08T07:38:43.399Z,98.49
2019-01-08T07:39:43.366Z,98.49
2019-01-08T07:40:43.331Z,98.45
2019-01-08T07:41:43.298Z,99.21
2019-01-08T07:42:43.265Z,98.21
2019-01-08T07:43:43.230Z,98.45
2019-01-08T07:44:43.197Z,98.40
2019-01-08T07:45:43.163Z,98.40
2019-01-08T07:46:43.134Z,98.45
2019-01-08T07:47:43.096Z,98.07
2019-01-08T07:48:43.063Z,98.59
2019-01-08T07:49:43.031Z,98.26
2019-01-08T07:50:42.996Z,98.26
2019-01-08T07:51:42.961Z,98.59
2019-01-08T07:52:42.928Z,98.68
2019-01-08T07:53:42.894Z,99.02
2019-01-08T07:54:42.861Z,98.54
2019-01-08T07:55:42.828Z,98.26
2019-01-08T07:56:42.792Z,98.54
2019-01-08T07:57:42.759Z,98.64
2019-01-08T07:58:42.725Z,98.45
2019-01-08T07:59:42.693Z,98.45
2019-01-08T08:00:49.900Z,98.64
2019-01-08T08:01:42.626Z,98.35
2019-01-08T08:02:42.592Z,98.64
2019-01-08T08:03:42.557Z,98.45
2019-01-08T08:04:47.512Z,98.26
2019-01-08T08:05:42.491Z,98.83
2019-01-08T08:06:42.459Z,98.35
2019-01-08T08:07:42.424Z,99.30
2019-01-08T08:08:42.390Z,99.21
2019-01-08T08:09:42.357Z,98.35
2019-01-08T08:10:42.325Z,99.40
2019-01-08T08:11:42.290Z,98.54
2019-01-08T08:12:42.257Z,98.16
2019-01-08T08:13:42.221Z,98.45
2019-01-08T08:14:42.188Z,97.88
2019-01-08T08:15:42.155Z,98.16
2019-01-08T08:16:42.121Z,98.83
2019-01-08T08:17:42.088Z,98.35
2019-01-08T08:18:42.055Z,98.35
2019-01-08T08:19:42.023Z,98.07
2019-01-08T08:20:41.987Z,97.88
2019-01-08T08:21:41.954Z,98.16
2019-01-08T08:22:41.921Z,97.88
2019-01-08T08:23:41.887Z,97.88
2019-01-08T08:24:41.852Z,98.26
2019-01-08T08:25:41.821Z,98.26
2019-01-08T08:26:41.786Z,98.45
2019-01-08T08:27:41.758Z,98.07
2019-01-08T08:28:41.719Z,98.45
2019-01-08T08:29:41.689Z,97.97
2019-01-08T08:30:41.653Z,98.16
2019-01-08T08:31:41.619Z,97.78
2019-01-08T08:32:41.585Z,97.22
2019-01-08T08:33:41.552Z,97.69
2019-01-08T08:34:41.518Z,98.26
2019-01-08T08:35:41.484Z,97.97
2019-01-08T08:36:41.456Z,98.16
2019-01-08T08:37:41.418Z,97.50
2019-01-08T08:38:41.384Z,97.50
2019-01-08T08:39:41.349Z,97.41
2019-01-08T08:40:41.317Z,97.88
2019-01-08T08:41:41.283Z,97.50
2019-01-08T08:42:41.251Z,97.50
2019-01-08T08:43:41.217Z,97.50
2019-01-08T08:44:41.182Z,96.93
2019-01-08T08:45:41.150Z,97.88
2019-01-08T08:46:41.117Z,97.22
2019-01-08T08:47:41.081Z,97.31
2019-01-08T08:48:41.050Z,96.83
2019-01-08T08:49:41.017Z,96.93
2019-01-08T08:50:40.983Z,96.45
2019-01-08T08:51:40.948Z,96.74
2019-01-08T08:52:40.914Z,95.70
2019-01-08T08:53:40.881Z,96.83
2019-01-08T08:54:40.848Z,95.89
2019-01-08T08:55:40.822Z,96.08
2019-01-08T08:56:40.781Z,95.51
2019-01-08T08:57:40.748Z,96.17
2019-01-08T08:58:40.715Z,96.26
2019-01-08T08:59:40.680Z,97.69
2019-01-08T09:00:40.647Z,96.64
2019-01-08T09:01:40.613Z,96.64
2019-01-08T09:02:40.583Z,96.83
2019-01-08T09:03:40.546Z,97.31
2019-01-08T09:04:40.513Z,97.41
2019-01-08T09:05:40.479Z,96.64
2019-01-08T09:06:40.447Z,96.74
2019-01-08T09:07:40.413Z,96.64
2019-01-08T09:08:40.380Z,96.36
2019-01-08T09:09:40.346Z,95.41
2019-01-08T09:10:40.313Z,96.45
2019-01-08T09:11:40.278Z,95.70
2019-01-08T09:12:40.245Z,95.70
2019-01-08T09:13:40.211Z,98.07
2019-01-08T09:14:40.179Z,95.31
2019-01-08T09:15:40.145Z,96.36
2019-01-08T09:16:40.111Z,95.89
2019-01-08T09:17:40.081Z,95.79
2019-01-08T09:18:40.048Z,95.70
2019-01-08T09:19:40.012Z,95.31
2019-01-08T09:20:39.978Z,95.12
2019-01-08T09:21:39.943Z,95.22
2019-01-08T09:22:39.914Z,95.31
2019-01-08T09:23:39.882Z,94.74
2019-01-08T09:24:39.845Z,95.31
2019-01-08T09:25:39.810Z,95.31
2019-01-08T09:26:39.779Z,95.51
2019-01-08T09:27:39.742Z,95.22
2019-01-08T09:28:39.709Z,94.93
2019-01-08T09:29:39.679Z,95.12
2019-01-08T09:30:39.643Z,94.93
2019-01-08T09:31:39.609Z,95.41
2019-01-08T09:32:39.580Z,95.12
2019-01-08T09:33:39.542Z,94.93
2019-01-08T09:34:39.510Z,95.12
2019-01-08T09:35:39.475Z,95.60
2019-01-08T09:36:39.442Z,95.51
2019-01-08T09:37:39.409Z,95.03
2019-01-08T09:38:39.378Z,95.41
2019-01-08T09:39:39.341Z,95.12
2019-01-08T09:40:39.309Z,95.22
2019-01-08T09:41:39.276Z,95.03
2019-01-08T09:42:39.243Z,95.03
2019-01-08T09:43:39.208Z,95.51
2019-01-08T09:44:39.176Z,95.41
2019-01-08T09:45:39.143Z,95.22
2019-01-08T09:46:39.108Z,95.41
2019-01-08T09:47:39.074Z,95.12
2019-01-08T09:48:39.042Z,95.31
2019-01-08T09:49:39.006Z,94.93
2019-01-08T09:50:38.975Z,95.03
2019-01-08T09:51:38.940Z,95.41
2019-01-08T09:52:38.908Z,95.12
2019-01-08T09:53:38.874Z,94.93
2019-01-08T09:54:38.842Z,95.22
2019-01-08T09:55:38.806Z,95.22
2019-01-08T09:56:38.774Z,95.03
2019-01-08T09:57:38.740Z,95.12
2019-01-08T09:58:38.709Z,94.84
2019-01-08T09:59:38.678Z,95.03
2019-01-08T10:00:38.641Z,95.12
2019-01-08T10:01:38.611Z,95.22
2019-01-08T10:02:38.574Z,94.79
2019-01-08T10:03:38.541Z,95.08
2019-01-08T10:04:38.508Z,95.03
2019-01-08T10:05:38.474Z,95.12
2019-01-08T10:06:38.441Z,94.56
2019-01-08T10:07:38.407Z,94.65
2019-01-08T10:08:38.376Z,95.08
2019-01-08T10:09:38.340Z,94.70
2019-01-08T10:10:38.308Z,95.55
2019-01-08T10:11:38.301Z,94.89
2019-01-08T10:12:38.243Z,95.46
2019-01-08T10:13:38.207Z,95.46
2019-01-08T10:14:38.174Z,94.98
2019-01-08T10:15:38.140Z,94.79
2019-01-08T10:16:38.108Z,94.70
2019-01-08T10:17:38.078Z,95.75
2019-01-08T10:18:38.043Z,94.42
2019-01-08T10:19:38.013Z,94.32
2019-01-08T10:20:37.978Z,94.98
2019-01-08T10:21:37.942Z,95.08
2019-01-08T10:22:37.913Z,95.65
2019-01-08T10:23:37.875Z,95.27
2019-01-08T10:24:37.845Z,94.60
2019-01-08T10:25:37.811Z,94.60
2019-01-08T10:26:37.778Z,95.36
2019-01-08T10:27:37.776Z,94.89
2019-01-08T10:28:37.711Z,94.32
2019-01-08T10:29:37.680Z,93.84
2019-01-08T10:30:37.647Z,94.51
2019-01-08T10:31:37.611Z,93.56
2019-01-08T10:32:37.581Z,93.65
2019-01-08T10:33:37.546Z,94.60
2019-01-08T10:34:37.513Z,93.65
2019-01-08T10:35:37.480Z,93.56
2019-01-08T10:36:37.448Z,94.51
2019-01-08T10:37:37.416Z,93.84
2019-01-08T10:38:37.381Z,93.75
2019-01-08T10:39:37.358Z,94.23
2019-01-08T10:40:37.317Z,92.90
2019-01-08T10:41:37.285Z,93.56
2019-01-08T10:42:37.252Z,93.08
2019-01-08T10:43:37.216Z,93.75
2019-01-08T10:44:37.185Z,92.90
2019-01-08T10:45:37.152Z,93.75
2019-01-08T10:46:37.530Z,94.32
2019-01-08T10:47:37.086Z,98.31
2019-01-08T10:48:37.055Z,96.22
2019-01-08T10:49:37.020Z,96.08
2019-01-08T10:50:36.994Z,96.45
2019-01-08T10:51:36.954Z,95.98
2019-01-08T10:52:36.923Z,95.32
2019-01-08T10:53:36.889Z,94.93
2019-01-08T10:54:36.857Z,96.36
2019-01-08T10:55:36.822Z,96.12
2019-01-08T10:56:36.789Z,94.46
2019-01-08T10:57:36.769Z,94.03
2019-01-08T10:58:36.726Z,98.26
2019-01-08T10:59:36.691Z,96.41
2019-01-08T11:00:36.659Z,95.41
2019-01-08T11:01:40.689Z,96.12
2019-01-08T11:02:36.593Z,94.79
2019-01-08T11:03:36.561Z,97.97
2019-01-08T11:04:36.527Z,95.94
2019-01-08T11:05:36.495Z,95.03
2019-01-08T11:06:36.462Z,94.98
2019-01-08T11:07:36.429Z,94.03
2019-01-08T11:08:36.395Z,94.79
2019-01-08T11:09:36.364Z,94.98
2019-01-08T11:10:36.332Z,94.13
2019-01-08T11:11:36.296Z,93.46
2019-01-08T11:12:36.264Z,93.27
2019-01-08T11:13:36.231Z,94.23
2019-01-08T11:14:36.200Z,93.65
2019-01-08T11:15:36.166Z,92.32
2019-01-08T11:16:36.132Z,92.90
2019-01-08T11:17:36.101Z,93.46
2019-01-08T11:18:36.115Z,93.65
2019-01-08T11:19:36.037Z,92.32
2019-01-08T11:20:36.002Z,91.75
2019-01-08T11:21:36.032Z,91.66
2019-01-08T11:22:35.939Z,91.75
2019-01-08T11:23:35.903Z,91.19
2019-01-08T11:24:35.869Z,91.38
2019-01-08T11:25:35.837Z,90.61
2019-01-08T11:26:35.804Z,91.38
2019-01-08T11:27:35.771Z,90.52
2019-01-08T11:28:35.737Z,90.52
2019-01-08T11:29:35.793Z,90.05
2019-01-08T11:30:35.673Z,89.76
2019-01-08T11:31:35.638Z,89.86
2019-01-08T11:32:35.605Z,90.33
2019-01-08T11:33:35.573Z,90.23
2019-01-08T11:34:35.540Z,89.86
2019-01-08T11:35:42.158Z,90.14
2019-01-08T11:36:35.474Z,89.28
2019-01-08T11:37:35.441Z,89.67
2019-01-08T11:38:35.408Z,89.00
2019-01-08T11:39:35.374Z,89.86
2019-01-08T11:40:35.346Z,89.76
2019-01-08T11:41:35.310Z,90.90
2019-01-08T11:42:35.276Z,90.14
2019-01-08T11:43:35.243Z,90.14
2019-01-08T11:44:35.211Z,91.94
2019-01-08T11:45:35.178Z,90.33
2019-01-08T11:46:35.145Z,89.76
2019-01-08T11:47:35.110Z,90.90
2019-01-08T11:48:35.077Z,89.67
2019-01-08T11:49:35.405Z,89.28
2019-01-08T11:50:35.018Z,89.95
2019-01-08T11:51:34.977Z,89.47
2019-01-08T11:52:34.947Z,89.86
2019-01-08T11:53:36.643Z,90.42
2019-01-08T11:54:40.800Z,90.52
2019-01-08T11:55:34.847Z,90.33
2019-01-08T11:56:34.812Z,90.05
2019-01-08T11:57:34.782Z,90.42
2019-01-08T11:58:34.746Z,91.75
2019-01-08T11:59:34.717Z,92.13
2019-01-08T12:00:34.683Z,91.94
2019-01-08T12:01:34.648Z,93.27
2019-01-08T12:02:34.614Z,91.28
2019-01-08T12:03:34.587Z,92.51
2019-01-08T12:04:34.548Z,91.19
2019-01-08T12:05:34.515Z,93.18
2019-01-08T12:06:34.486Z,91.85
2019-01-08T12:07:34.449Z,91.85
2019-01-08T12:08:34.418Z,92.99
2019-01-08T12:09:34.387Z,93.08
2019-01-08T12:10:34.351Z,92.32
2019-01-08T12:11:34.318Z,92.32
2019-01-08T12:12:34.284Z,90.99
2019-01-08T12:13:34.252Z,91.75
2019-01-08T12:14:34.220Z,91.56
2019-01-08T12:15:34.186Z,89.67
2019-01-08T12:16:34.152Z,88.81
2019-01-08T12:17:34.121Z,88.62
2019-01-08T12:18:34.088Z,89.95
2019-01-08T12:19:34.053Z,88.43
2019-01-08T12:20:34.021Z,88.34
2019-01-08T12:21:33.987Z,87.86
2019-01-08T12:22:40.790Z,88.53
2019-01-08T12:23:33.925Z,88.05
2019-01-08T12:24:33.889Z,87.57
2019-01-08T12:25:33.862Z,88.43
2019-01-08T12:26:33.823Z,88.05
2019-01-08T12:27:33.789Z,88.34
2019-01-08T12:28:33.756Z,88.05
2019-01-08T12:29:33.723Z,88.53
2019-01-08T12:30:33.691Z,88.81
2019-01-08T12:31:33.656Z,88.24
2019-01-08T12:32:33.623Z,87.95
2019-01-08T12:33:33.591Z,87.95
2019-01-08T12:34:33.557Z,88.34
2019-01-08T12:35:33.524Z,88.43
2019-01-08T12:36:33.490Z,89.86
2019-01-08T12:37:33.457Z,90.33
2019-01-08T12:38:33.425Z,88.15
2019-01-08T12:39:33.392Z,88.53
2019-01-08T12:40:33.358Z,88.24
2019-01-08T12:41:33.325Z,88.81
2019-01-08T12:42:33.292Z,91.28
2019-01-08T12:43:33.361Z,88.81
2019-01-08T12:44:33.226Z,88.71
2019-01-08T12:45:33.195Z,89.00
2019-01-08T12:46:33.160Z,88.71
2019-01-08T12:47:33.126Z,90.52
2019-01-08T12:48:33.093Z,89.28
2019-01-08T12:49:33.062Z,88.90
2019-01-08T12:50:33.028Z,92.32
2019-01-08T12:51:32.993Z,93.37
2019-01-08T12:52:32.961Z,94.79